sensor_id;sensor_type;location;lat;lon;timestamp;temperature;humidity
306;DHT22;137;48.578;9.180;2023-01-20T00:02:27;-1.10;98.20
306;DHT22;137;48.578;9.180;2023-01-20T00:04:53;-1.00;98.20
306;DHT22;137;48.578;9.180;2023-01-20T00:07:20;-1.00;98.20
306;DHT22;137;48.578;9.180;2023-01-20T00:09:47;-1.00;98.20
306;DHT22;137;48.578;9.180;2023-01-20T00:12:14;-1.00;98.20
306;DHT22;137;48.578;9.180;2023-01-20T00:14:40;-1.00;98.20
306;DHT22;137;48.578;9.180;2023-01-20T00:17:07;-0.90;98.20
306;DHT22;137;48.578;9.180;2023-01-20T00:19:35;-0.90;98.20
306;DHT22;137;48.578;9.180;2023-01-20T00:22:02;-0.80;98.20
306;DHT22;137;48.578;9.180;2023-01-20T00:24:29;-0.80;98.20
306;DHT22;137;48.578;9.180;2023-01-20T00:26:56;-0.80;98.20
306;DHT22;137;48.578;9.180;2023-01-20T00:29:22;-0.70;98.20
306;DHT22;137;48.578;9.180;2023-01-20T00:31:49;-0.70;98.20
306;DHT22;137;48.578;9.180;2023-01-20T00:34:16;-0.70;98.20
306;DHT22;137;48.578;9.180;2023-01-20T00:36:44;-0.80;98.20
306;DHT22;137;48.578;9.180;2023-01-20T00:39:11;-0.80;98.20
306;DHT22;137;48.578;9.180;2023-01-20T00:41:38;-0.80;98.20
306;DHT22;137;48.578;9.180;2023-01-20T00:44:04;-0.80;98.20
306;DHT22;137;48.578;9.180;2023-01-20T00:46:31;-0.80;98.20
306;DHT22;137;48.578;9.180;2023-01-20T00:48:58;-0.80;98.20
306;DHT22;137;48.578;9.180;2023-01-20T00:51:25;-0.70;98.20
306;DHT22;137;48.578;9.180;2023-01-20T00:53:53;-0.70;98.20
306;DHT22;137;48.578;9.180;2023-01-20T00:56:20;-0.70;98.20
306;DHT22;137;48.578;9.180;2023-01-20T00:58:46;-0.70;98.20
306;DHT22;137;48.578;9.180;2023-01-20T01:01:13;-0.70;98.20
306;DHT22;137;48.578;9.180;2023-01-20T01:03:40;-0.70;98.20
306;DHT22;137;48.578;9.180;2023-01-20T01:06:09;-0.70;98.20
306;DHT22;137;48.578;9.180;2023-01-20T01:08:36;-0.60;98.20
306;DHT22;137;48.578;9.180;2023-01-20T01:11:05;-0.60;98.20
306;DHT22;137;48.578;9.180;2023-01-20T01:13:32;-0.60;98.20
306;DHT22;137;48.578;9.180;2023-01-20T01:15:59;-0.70;98.20
306;DHT22;137;48.578;9.180;2023-01-20T01:18:26;-0.70;98.20
306;DHT22;137;48.578;9.180;2023-01-20T01:20:53;-0.80;98.20
306;DHT22;137;48.578;9.180;2023-01-20T01:23:20;-0.80;98.20
306;DHT22;137;48.578;9.180;2023-01-20T01:25:47;-0.70;98.20
306;DHT22;137;48.578;9.180;2023-01-20T01:28:15;-0.80;98.20
306;DHT22;137;48.578;9.180;2023-01-20T01:30:42;-0.80;98.20
306;DHT22;137;48.578;9.180;2023-01-20T01:33:09;-0.70;98.20
306;DHT22;137;48.578;9.180;2023-01-20T01:35:36;-0.70;98.20
306;DHT22;137;48.578;9.180;2023-01-20T01:38:03;-0.70;98.20
306;DHT22;137;48.578;9.180;2023-01-20T01:40:30;-0.70;98.20
306;DHT22;137;48.578;9.180;2023-01-20T01:42:56;-0.70;98.20
306;DHT22;137;48.578;9.180;2023-01-20T01:45:26;-0.70;98.20
306;DHT22;137;48.578;9.180;2023-01-20T01:47:59;-0.70;98.20
306;DHT22;137;48.578;9.180;2023-01-20T01:50:31;-0.70;98.20
306;DHT22;137;48.578;9.180;2023-01-20T01:53:00;-0.80;98.20
306;DHT22;137;48.578;9.180;2023-01-20T01:55:29;-0.80;98.20
306;DHT22;137;48.578;9.180;2023-01-20T01:57:59;-0.80;98.20
306;DHT22;137;48.578;9.180;2023-01-20T02:00:28;-0.80;98.20
306;DHT22;137;48.578;9.180;2023-01-20T02:02:55;-0.80;98.20
306;DHT22;137;48.578;9.180;2023-01-20T02:05:24;-0.80;98.20
306;DHT22;137;48.578;9.180;2023-01-20T02:07:52;-0.70;98.20
306;DHT22;137;48.578;9.180;2023-01-20T02:10:19;-0.70;98.20
306;DHT22;137;48.578;9.180;2023-01-20T02:12:47;-0.60;98.20
306;DHT22;137;48.578;9.180;2023-01-20T02:15:17;-0.70;98.20
306;DHT22;137;48.578;9.180;2023-01-20T02:17:59;-0.70;98.20
306;DHT22;137;48.578;9.180;2023-01-20T02:20:54;-0.70;98.20
306;DHT22;137;48.578;9.180;2023-01-20T02:23:43;-0.70;98.20
306;DHT22;137;48.578;9.180;2023-01-20T02:26:34;-0.70;98.20
306;DHT22;137;48.578;9.180;2023-01-20T02:29:43;-0.80;98.20
306;DHT22;137;48.578;9.180;2023-01-20T02:32:27;-0.70;98.20
306;DHT22;137;48.578;9.180;2023-01-20T02:34:57;-0.70;98.20
306;DHT22;137;48.578;9.180;2023-01-20T02:37:28;-0.80;98.20
306;DHT22;137;48.578;9.180;2023-01-20T02:40:08;-0.80;98.20
306;DHT22;137;48.578;9.180;2023-01-20T02:42:42;-0.80;98.20
306;DHT22;137;48.578;9.180;2023-01-20T02:45:15;-0.80;98.20
306;DHT22;137;48.578;9.180;2023-01-20T02:47:49;-0.80;98.20
306;DHT22;137;48.578;9.180;2023-01-20T02:50:21;-0.90;98.20
306;DHT22;137;48.578;9.180;2023-01-20T02:52:52;-0.80;98.20
306;DHT22;137;48.578;9.180;2023-01-20T02:55:24;-0.90;98.20
306;DHT22;137;48.578;9.180;2023-01-20T02:57:55;-0.90;98.20
306;DHT22;137;48.578;9.180;2023-01-20T03:00:28;-0.90;98.20
306;DHT22;137;48.578;9.180;2023-01-20T03:03:01;-0.90;98.20
306;DHT22;137;48.578;9.180;2023-01-20T03:05:34;-1.00;98.20
306;DHT22;137;48.578;9.180;2023-01-20T03:08:05;-1.00;98.20
306;DHT22;137;48.578;9.180;2023-01-20T03:10:36;-1.10;98.20
306;DHT22;137;48.578;9.180;2023-01-20T03:13:07;-1.20;98.20
306;DHT22;137;48.578;9.180;2023-01-20T03:15:39;-1.20;98.20
306;DHT22;137;48.578;9.180;2023-01-20T03:18:10;-1.30;98.20
306;DHT22;137;48.578;9.180;2023-01-20T03:20:36;-1.30;98.20
306;DHT22;137;48.578;9.180;2023-01-20T03:23:03;-1.40;98.20
306;DHT22;137;48.578;9.180;2023-01-20T03:25:31;-1.30;98.20
306;DHT22;137;48.578;9.180;2023-01-20T03:27:58;-1.40;98.20
306;DHT22;137;48.578;9.180;2023-01-20T03:30:25;-1.30;98.20
306;DHT22;137;48.578;9.180;2023-01-20T03:32:52;-1.30;98.20
306;DHT22;137;48.578;9.180;2023-01-20T03:35:21;-1.20;98.20
306;DHT22;137;48.578;9.180;2023-01-20T03:37:48;-1.10;98.20
306;DHT22;137;48.578;9.180;2023-01-20T03:40:15;-1.10;98.20
306;DHT22;137;48.578;9.180;2023-01-20T03:42:50;-1.00;98.20
306;DHT22;137;48.578;9.180;2023-01-20T03:45:22;-1.00;98.20
306;DHT22;137;48.578;9.180;2023-01-20T03:47:55;-0.90;98.20
306;DHT22;137;48.578;9.180;2023-01-20T03:50:31;-0.90;98.20
306;DHT22;137;48.578;9.180;2023-01-20T03:53:05;-0.90;98.20
306;DHT22;137;48.578;9.180;2023-01-20T03:55:39;-0.70;98.20
306;DHT22;137;48.578;9.180;2023-01-20T03:58:09;-0.80;98.20
306;DHT22;137;48.578;9.180;2023-01-20T04:00:41;-0.80;98.20
306;DHT22;137;48.578;9.180;2023-01-20T04:03:12;-0.80;98.20
306;DHT22;137;48.578;9.180;2023-01-20T04:05:42;-0.80;98.20
306;DHT22;137;48.578;9.180;2023-01-20T04:08:11;-0.70;98.20
306;DHT22;137;48.578;9.180;2023-01-20T04:10:41;-0.80;98.20
306;DHT22;137;48.578;9.180;2023-01-20T04:13:09;-0.90;98.20
306;DHT22;137;48.578;9.180;2023-01-20T04:15:39;-0.90;98.20
306;DHT22;137;48.578;9.180;2023-01-20T04:18:13;-0.90;98.20
306;DHT22;137;48.578;9.180;2023-01-20T04:20:42;-0.90;98.20
306;DHT22;137;48.578;9.180;2023-01-20T04:23:15;-0.90;98.20
306;DHT22;137;48.578;9.180;2023-01-20T04:25:43;-0.90;98.20
306;DHT22;137;48.578;9.180;2023-01-20T04:28:10;-0.90;98.20
306;DHT22;137;48.578;9.180;2023-01-20T04:30:37;-0.80;98.20
306;DHT22;137;48.578;9.180;2023-01-20T04:33:03;-0.70;98.20
306;DHT22;137;48.578;9.180;2023-01-20T04:35:30;-0.80;98.20
306;DHT22;137;48.578;9.180;2023-01-20T04:37:59;-0.70;98.20
306;DHT22;137;48.578;9.180;2023-01-20T04:40:26;-0.70;98.20
306;DHT22;137;48.578;9.180;2023-01-20T04:42:52;-0.70;98.20
306;DHT22;137;48.578;9.180;2023-01-20T04:45:19;-0.60;98.20
306;DHT22;137;48.578;9.180;2023-01-20T04:47:46;-0.60;98.20
306;DHT22;137;48.578;9.180;2023-01-20T04:50:13;-0.60;98.20
306;DHT22;137;48.578;9.180;2023-01-20T04:52:41;-0.50;98.20
306;DHT22;137;48.578;9.180;2023-01-20T04:55:10;-0.50;98.20
306;DHT22;137;48.578;9.180;2023-01-20T04:57:37;-0.50;98.20
306;DHT22;137;48.578;9.180;2023-01-20T05:00:06;-0.50;98.20
306;DHT22;137;48.578;9.180;2023-01-20T05:02:32;-0.50;98.20
306;DHT22;137;48.578;9.180;2023-01-20T05:04:59;-0.50;98.20
306;DHT22;137;48.578;9.180;2023-01-20T05:07:26;-0.50;98.20
306;DHT22;137;48.578;9.180;2023-01-20T05:09:53;-0.60;98.20
306;DHT22;137;48.578;9.180;2023-01-20T05:12:21;-0.70;98.20
306;DHT22;137;48.578;9.180;2023-01-20T05:14:48;-0.70;98.20
306;DHT22;137;48.578;9.180;2023-01-20T05:17:14;-0.70;98.20
306;DHT22;137;48.578;9.180;2023-01-20T05:19:41;-0.70;98.20
306;DHT22;137;48.578;9.180;2023-01-20T05:22:08;-0.70;98.20
306;DHT22;137;48.578;9.180;2023-01-20T05:24:35;-0.70;98.20
306;DHT22;137;48.578;9.180;2023-01-20T05:27:02;-0.70;98.20
306;DHT22;137;48.578;9.180;2023-01-20T05:29:30;-0.70;98.20
306;DHT22;137;48.578;9.180;2023-01-20T05:31:57;-0.80;98.20
306;DHT22;137;48.578;9.180;2023-01-20T05:34:24;-0.80;98.20
306;DHT22;137;48.578;9.180;2023-01-20T05:36:52;-0.80;98.20
306;DHT22;137;48.578;9.180;2023-01-20T05:39:19;-0.80;98.20
306;DHT22;137;48.578;9.180;2023-01-20T05:41:47;-0.80;98.20
306;DHT22;137;48.578;9.180;2023-01-20T05:44:14;-0.80;98.20
306;DHT22;137;48.578;9.180;2023-01-20T05:46:42;-0.80;98.20
306;DHT22;137;48.578;9.180;2023-01-20T05:49:10;-0.80;98.20
306;DHT22;137;48.578;9.180;2023-01-20T05:51:37;-0.80;98.20
306;DHT22;137;48.578;9.180;2023-01-20T05:54:05;-0.80;98.20
306;DHT22;137;48.578;9.180;2023-01-20T05:56:32;-0.70;98.20
306;DHT22;137;48.578;9.180;2023-01-20T05:58:58;-0.70;98.20
306;DHT22;137;48.578;9.180;2023-01-20T06:01:27;-0.70;98.20
306;DHT22;137;48.578;9.180;2023-01-20T06:03:55;-0.60;98.20
306;DHT22;137;48.578;9.180;2023-01-20T06:06:22;-0.60;98.20
306;DHT22;137;48.578;9.180;2023-01-20T06:08:51;-0.60;98.20
306;DHT22;137;48.578;9.180;2023-01-20T06:11:18;-0.60;98.20
306;DHT22;137;48.578;9.180;2023-01-20T06:13:45;-0.60;98.20
306;DHT22;137;48.578;9.180;2023-01-20T06:16:13;-0.60;98.20
306;DHT22;137;48.578;9.180;2023-01-20T06:18:39;-0.70;98.20
306;DHT22;137;48.578;9.180;2023-01-20T06:21:08;-0.70;98.20
306;DHT22;137;48.578;9.180;2023-01-20T06:23:35;-0.70;98.20
306;DHT22;137;48.578;9.180;2023-01-20T06:26:04;-0.70;98.20
306;DHT22;137;48.578;9.180;2023-01-20T06:28:31;-0.70;98.20
306;DHT22;137;48.578;9.180;2023-01-20T06:31:00;-0.70;98.20
306;DHT22;137;48.578;9.180;2023-01-20T06:33:27;-0.70;98.20
306;DHT22;137;48.578;9.180;2023-01-20T06:35:54;-0.60;98.20
306;DHT22;137;48.578;9.180;2023-01-20T06:38:23;-0.60;98.20
306;DHT22;137;48.578;9.180;2023-01-20T06:40:50;-0.60;98.20
306;DHT22;137;48.578;9.180;2023-01-20T06:43:21;-0.60;98.20
306;DHT22;137;48.578;9.180;2023-01-20T06:45:48;-0.60;98.20
306;DHT22;137;48.578;9.180;2023-01-20T06:48:15;-0.50;98.20
306;DHT22;137;48.578;9.180;2023-01-20T06:50:42;-0.50;98.20
306;DHT22;137;48.578;9.180;2023-01-20T06:53:09;-0.50;98.20
306;DHT22;137;48.578;9.180;2023-01-20T06:55:37;-0.40;98.20
306;DHT22;137;48.578;9.180;2023-01-20T06:58:04;-0.50;98.20
306;DHT22;137;48.578;9.180;2023-01-20T07:00:31;-0.50;98.20
306;DHT22;137;48.578;9.180;2023-01-20T07:02:58;-0.60;98.20
306;DHT22;137;48.578;9.180;2023-01-20T07:05:25;-0.60;98.20
306;DHT22;137;48.578;9.180;2023-01-20T07:07:51;-0.60;98.20
306;DHT22;137;48.578;9.180;2023-01-20T07:10:18;-0.70;98.20
306;DHT22;137;48.578;9.180;2023-01-20T07:12:46;-0.70;98.20
306;DHT22;137;48.578;9.180;2023-01-20T07:15:13;-0.70;98.20
306;DHT22;137;48.578;9.180;2023-01-20T07:17:40;-0.70;98.20
306;DHT22;137;48.578;9.180;2023-01-20T07:20:08;-0.70;98.20
306;DHT22;137;48.578;9.180;2023-01-20T07:22:35;-0.70;98.20
306;DHT22;137;48.578;9.180;2023-01-20T07:25:02;-0.70;98.20
306;DHT22;137;48.578;9.180;2023-01-20T07:27:29;-0.70;98.20
306;DHT22;137;48.578;9.180;2023-01-20T07:29:57;-0.60;98.20
306;DHT22;137;48.578;9.180;2023-01-20T07:32:24;-0.50;98.20
306;DHT22;137;48.578;9.180;2023-01-20T07:34:50;-0.50;98.20
306;DHT22;137;48.578;9.180;2023-01-20T07:37:17;-0.50;98.20
306;DHT22;137;48.578;9.180;2023-01-20T07:39:44;-0.40;98.20
306;DHT22;137;48.578;9.180;2023-01-20T07:42:11;-0.40;98.20
306;DHT22;137;48.578;9.180;2023-01-20T07:44:37;-0.40;98.20
306;DHT22;137;48.578;9.180;2023-01-20T07:47:05;-0.50;98.20
306;DHT22;137;48.578;9.180;2023-01-20T07:49:32;-0.40;98.20
306;DHT22;137;48.578;9.180;2023-01-20T07:51:59;-0.30;98.20
306;DHT22;137;48.578;9.180;2023-01-20T07:54:26;-0.30;98.20
306;DHT22;137;48.578;9.180;2023-01-20T07:56:52;-0.20;98.20
306;DHT22;137;48.578;9.180;2023-01-20T07:59:19;-0.10;98.20
306;DHT22;137;48.578;9.180;2023-01-20T08:01:46;0.00;98.20
306;DHT22;137;48.578;9.180;2023-01-20T08:04:14;0.10;98.20
306;DHT22;137;48.578;9.180;2023-01-20T08:06:42;0.20;98.20
306;DHT22;137;48.578;9.180;2023-01-20T08:09:09;0.30;98.20
306;DHT22;137;48.578;9.180;2023-01-20T08:11:39;0.30;98.20
306;DHT22;137;48.578;9.180;2023-01-20T08:14:06;0.30;98.20
306;DHT22;137;48.578;9.180;2023-01-20T08:16:33;0.40;98.20
306;DHT22;137;48.578;9.180;2023-01-20T08:18:59;0.50;98.20
306;DHT22;137;48.578;9.180;2023-01-20T08:21:29;0.60;98.20
306;DHT22;137;48.578;9.180;2023-01-20T08:23:57;0.70;98.20
306;DHT22;137;48.578;9.180;2023-01-20T08:26:25;0.70;98.20
306;DHT22;137;48.578;9.180;2023-01-20T08:28:54;0.70;98.20
306;DHT22;137;48.578;9.180;2023-01-20T08:31:22;0.80;98.20
306;DHT22;137;48.578;9.180;2023-01-20T08:33:51;0.80;98.20
306;DHT22;137;48.578;9.180;2023-01-20T08:36:20;0.90;98.20
306;DHT22;137;48.578;9.180;2023-01-20T08:38:49;0.70;98.20
306;DHT22;137;48.578;9.180;2023-01-20T08:41:18;0.80;98.20
306;DHT22;137;48.578;9.180;2023-01-20T08:43:45;0.70;98.20
306;DHT22;137;48.578;9.180;2023-01-20T08:46:14;0.80;98.20
306;DHT22;137;48.578;9.180;2023-01-20T08:48:42;0.80;98.20
306;DHT22;137;48.578;9.180;2023-01-20T08:51:11;0.80;98.20
306;DHT22;137;48.578;9.180;2023-01-20T08:53:39;0.90;98.20
306;DHT22;137;48.578;9.180;2023-01-20T08:56:08;1.00;98.20
306;DHT22;137;48.578;9.180;2023-01-20T08:58:35;1.10;98.20
306;DHT22;137;48.578;9.180;2023-01-20T09:01:07;1.10;98.20
306;DHT22;137;48.578;9.180;2023-01-20T09:03:34;1.20;98.20
306;DHT22;137;48.578;9.180;2023-01-20T09:06:01;1.30;98.20
306;DHT22;137;48.578;9.180;2023-01-20T09:08:28;1.30;98.20
306;DHT22;137;48.578;9.180;2023-01-20T09:11:00;1.40;98.20
306;DHT22;137;48.578;9.180;2023-01-20T09:13:28;1.40;98.20
306;DHT22;137;48.578;9.180;2023-01-20T09:15:55;1.30;98.20
306;DHT22;137;48.578;9.180;2023-01-20T09:18:22;1.20;98.20
306;DHT22;137;48.578;9.180;2023-01-20T09:20:49;1.20;98.20
306;DHT22;137;48.578;9.180;2023-01-20T09:23:16;1.20;98.20
306;DHT22;137;48.578;9.180;2023-01-20T09:25:42;1.10;98.20
306;DHT22;137;48.578;9.180;2023-01-20T09:28:09;1.20;98.20
306;DHT22;137;48.578;9.180;2023-01-20T09:30:37;1.10;98.20
306;DHT22;137;48.578;9.180;2023-01-20T09:33:04;1.10;98.20
306;DHT22;137;48.578;9.180;2023-01-20T09:35:31;1.40;98.20
306;DHT22;137;48.578;9.180;2023-01-20T09:37:58;1.70;98.20
306;DHT22;137;48.578;9.180;2023-01-20T09:40:47;1.90;98.20
306;DHT22;137;48.578;9.180;2023-01-20T09:43:42;2.10;98.20
306;DHT22;137;48.578;9.180;2023-01-20T09:46:32;2.20;98.20
306;DHT22;137;48.578;9.180;2023-01-20T09:49:11;2.40;98.20
306;DHT22;137;48.578;9.180;2023-01-20T09:52:03;2.50;98.20
306;DHT22;137;48.578;9.180;2023-01-20T09:54:55;2.50;98.20
306;DHT22;137;48.578;9.180;2023-01-20T09:57:27;2.60;98.20
306;DHT22;137;48.578;9.180;2023-01-20T10:00:00;2.80;98.20
306;DHT22;137;48.578;9.180;2023-01-20T10:02:32;2.90;98.20
306;DHT22;137;48.578;9.180;2023-01-20T10:05:06;3.10;98.20
306;DHT22;137;48.578;9.180;2023-01-20T10:07:38;3.20;98.20
306;DHT22;137;48.578;9.180;2023-01-20T10:10:14;3.40;98.20
306;DHT22;137;48.578;9.180;2023-01-20T10:12:46;3.60;98.20
306;DHT22;137;48.578;9.180;2023-01-20T10:15:19;3.90;98.20
306;DHT22;137;48.578;9.180;2023-01-20T10:17:53;4.20;98.20
306;DHT22;137;48.578;9.180;2023-01-20T10:20:27;4.40;98.20
306;DHT22;137;48.578;9.180;2023-01-20T10:22:58;4.40;98.20
306;DHT22;137;48.578;9.180;2023-01-20T10:25:30;4.60;98.20
306;DHT22;137;48.578;9.180;2023-01-20T10:28:09;4.70;98.20
306;DHT22;137;48.578;9.180;2023-01-20T10:30:37;4.90;98.20
306;DHT22;137;48.578;9.180;2023-01-20T10:33:09;5.10;98.20
306;DHT22;137;48.578;9.180;2023-01-20T10:35:39;5.20;98.20
306;DHT22;137;48.578;9.180;2023-01-20T10:38:18;5.40;98.20
306;DHT22;137;48.578;9.180;2023-01-20T10:40:50;5.70;98.20
306;DHT22;137;48.578;9.180;2023-01-20T10:43:19;6.00;98.20
306;DHT22;137;48.578;9.180;2023-01-20T10:46:10;6.00;98.20
306;DHT22;137;48.578;9.180;2023-01-20T10:48:53;6.20;98.20
306;DHT22;137;48.578;9.180;2023-01-20T10:51:29;6.30;98.20
306;DHT22;137;48.578;9.180;2023-01-20T10:54:05;6.30;98.20
306;DHT22;137;48.578;9.180;2023-01-20T10:56:41;6.30;98.20
306;DHT22;137;48.578;9.180;2023-01-20T10:59:13;6.30;98.20
306;DHT22;137;48.578;9.180;2023-01-20T11:01:42;6.20;98.20
306;DHT22;137;48.578;9.180;2023-01-20T11:04:17;6.10;98.20
306;DHT22;137;48.578;9.180;2023-01-20T11:06:47;6.10;98.20
306;DHT22;137;48.578;9.180;2023-01-20T11:09:19;6.00;98.20
306;DHT22;137;48.578;9.180;2023-01-20T11:11:48;6.00;98.20
306;DHT22;137;48.578;9.180;2023-01-20T11:14:15;6.00;98.20
306;DHT22;137;48.578;9.180;2023-01-20T11:16:42;6.10;98.20
306;DHT22;137;48.578;9.180;2023-01-20T11:19:12;6.00;98.20
306;DHT22;137;48.578;9.180;2023-01-20T11:21:41;5.60;98.20
306;DHT22;137;48.578;9.180;2023-01-20T11:24:31;5.20;98.20
306;DHT22;137;48.578;9.180;2023-01-20T11:27:03;4.80;98.20
306;DHT22;137;48.578;9.180;2023-01-20T11:29:34;4.90;98.20
306;DHT22;137;48.578;9.180;2023-01-20T11:32:02;4.90;98.20
306;DHT22;137;48.578;9.180;2023-01-20T11:34:31;5.00;98.20
306;DHT22;137;48.578;9.180;2023-01-20T11:37:16;4.90;98.20
306;DHT22;137;48.578;9.180;2023-01-20T11:39:56;4.60;98.20
306;DHT22;137;48.578;9.180;2023-01-20T11:42:26;4.00;98.20
306;DHT22;137;48.578;9.180;2023-01-20T11:44:55;3.80;98.20
306;DHT22;137;48.578;9.180;2023-01-20T11:47:24;3.60;98.20
306;DHT22;137;48.578;9.180;2023-01-20T11:50:24;3.40;98.20
306;DHT22;137;48.578;9.180;2023-01-20T11:53:11;3.20;98.20
306;DHT22;137;48.578;9.180;2023-01-20T11:55:45;3.30;98.20
306;DHT22;137;48.578;9.180;2023-01-20T11:58:16;3.00;98.20
306;DHT22;137;48.578;9.180;2023-01-20T12:00:43;3.10;98.20
306;DHT22;137;48.578;9.180;2023-01-20T12:06:11;3.20;98.20
306;DHT22;137;48.578;9.180;2023-01-20T12:08:44;3.30;98.20
306;DHT22;137;48.578;9.180;2023-01-20T12:11:15;3.20;98.20
306;DHT22;137;48.578;9.180;2023-01-20T12:13:47;3.40;98.20
306;DHT22;137;48.578;9.180;2023-01-20T12:16:36;3.50;98.20
306;DHT22;137;48.578;9.180;2023-01-20T12:19:10;3.50;98.20
306;DHT22;137;48.578;9.180;2023-01-20T12:21:42;3.60;98.20
306;DHT22;137;48.578;9.180;2023-01-20T12:24:17;3.70;98.20
306;DHT22;137;48.578;9.180;2023-01-20T12:26:47;3.70;98.20
306;DHT22;137;48.578;9.180;2023-01-20T12:29:19;3.60;98.20
306;DHT22;137;48.578;9.180;2023-01-20T12:31:47;3.50;98.20
306;DHT22;137;48.578;9.180;2023-01-20T12:34:16;3.40;98.20
306;DHT22;137;48.578;9.180;2023-01-20T12:37:04;3.40;98.20
306;DHT22;137;48.578;9.180;2023-01-20T12:39:46;3.40;98.20
306;DHT22;137;48.578;9.180;2023-01-20T12:45:13;3.60;98.20
306;DHT22;137;48.578;9.180;2023-01-20T12:47:52;3.60;98.20
306;DHT22;137;48.578;9.180;2023-01-20T12:50:28;3.70;98.20
306;DHT22;137;48.578;9.180;2023-01-20T12:53:12;3.70;98.20
306;DHT22;137;48.578;9.180;2023-01-20T12:55:49;3.80;98.20
306;DHT22;137;48.578;9.180;2023-01-20T12:58:26;3.80;98.20
306;DHT22;137;48.578;9.180;2023-01-20T13:07:31;3.70;98.20
306;DHT22;137;48.578;9.180;2023-01-20T13:10:11;3.60;98.20
306;DHT22;137;48.578;9.180;2023-01-20T13:12:48;3.70;98.20
306;DHT22;137;48.578;9.180;2023-01-20T13:15:21;3.90;98.20
306;DHT22;137;48.578;9.180;2023-01-20T13:18:11;3.80;98.20
306;DHT22;137;48.578;9.180;2023-01-20T13:20:42;3.90;98.20
306;DHT22;137;48.578;9.180;2023-01-20T13:23:13;4.00;98.20
306;DHT22;137;48.578;9.180;2023-01-20T13:25:41;4.00;98.20
306;DHT22;137;48.578;9.180;2023-01-20T13:28:18;4.10;98.20
306;DHT22;137;48.578;9.180;2023-01-20T13:30:47;4.30;98.20
306;DHT22;137;48.578;9.180;2023-01-20T13:33:25;4.20;98.20
306;DHT22;137;48.578;9.180;2023-01-20T13:35:54;4.20;98.20
306;DHT22;137;48.578;9.180;2023-01-20T13:38:23;4.30;98.20
306;DHT22;137;48.578;9.180;2023-01-20T13:40:54;4.30;98.20
306;DHT22;137;48.578;9.180;2023-01-20T13:46:48;4.00;98.20
306;DHT22;137;48.578;9.180;2023-01-20T13:49:29;3.70;98.20
306;DHT22;137;48.578;9.180;2023-01-20T13:52:09;3.60;98.20
306;DHT22;137;48.578;9.180;2023-01-20T13:54:42;3.50;98.20
306;DHT22;137;48.578;9.180;2023-01-20T13:57:36;3.50;98.20
306;DHT22;137;48.578;9.180;2023-01-20T14:00:18;3.50;98.20
306;DHT22;137;48.578;9.180;2023-01-20T14:02:46;3.50;98.20
306;DHT22;137;48.578;9.180;2023-01-20T14:05:25;3.50;98.20
306;DHT22;137;48.578;9.180;2023-01-20T14:07:52;3.60;98.20
306;DHT22;137;48.578;9.180;2023-01-20T14:10:19;3.60;98.20
306;DHT22;137;48.578;9.180;2023-01-20T14:12:46;3.60;98.20
306;DHT22;137;48.578;9.180;2023-01-20T14:15:37;3.60;98.20
306;DHT22;137;48.578;9.180;2023-01-20T14:18:13;3.50;98.20
306;DHT22;137;48.578;9.180;2023-01-20T14:20:40;3.40;98.20
306;DHT22;137;48.578;9.180;2023-01-20T14:23:24;3.40;98.20
306;DHT22;137;48.578;9.180;2023-01-20T14:26:03;3.40;98.20
306;DHT22;137;48.578;9.180;2023-01-20T14:28:31;3.40;98.20
306;DHT22;137;48.578;9.180;2023-01-20T14:31:26;3.40;98.20
306;DHT22;137;48.578;9.180;2023-01-20T14:33:57;3.40;98.20
306;DHT22;137;48.578;9.180;2023-01-20T14:36:25;3.40;98.20
306;DHT22;137;48.578;9.180;2023-01-20T14:38:55;3.40;98.20
306;DHT22;137;48.578;9.180;2023-01-20T14:41:24;3.20;98.20
306;DHT22;137;48.578;9.180;2023-01-20T14:43:51;3.00;98.20
306;DHT22;137;48.578;9.180;2023-01-20T14:46:20;3.00;98.20
306;DHT22;137;48.578;9.180;2023-01-20T14:48:47;3.00;98.20
306;DHT22;137;48.578;9.180;2023-01-20T14:51:14;3.00;98.20
306;DHT22;137;48.578;9.180;2023-01-20T14:53:41;2.90;98.20
306;DHT22;137;48.578;9.180;2023-01-20T14:56:17;2.90;98.20
306;DHT22;137;48.578;9.180;2023-01-20T14:58:45;2.80;98.20
306;DHT22;137;48.578;9.180;2023-01-20T15:01:21;2.80;98.20
306;DHT22;137;48.578;9.180;2023-01-20T15:03:55;2.80;98.20
306;DHT22;137;48.578;9.180;2023-01-20T15:06:23;2.80;98.20
306;DHT22;137;48.578;9.180;2023-01-20T15:08:52;3.00;98.20
306;DHT22;137;48.578;9.180;2023-01-20T15:11:23;3.10;98.20
306;DHT22;137;48.578;9.180;2023-01-20T15:14:07;3.30;98.20
306;DHT22;137;48.578;9.180;2023-01-20T15:16:58;3.40;98.20
306;DHT22;137;48.578;9.180;2023-01-20T15:19:29;3.40;98.20
306;DHT22;137;48.578;9.180;2023-01-20T15:22:18;3.50;98.20
306;DHT22;137;48.578;9.180;2023-01-20T15:24:47;3.40;98.20
306;DHT22;137;48.578;9.180;2023-01-20T15:27:24;3.40;98.20
306;DHT22;137;48.578;9.180;2023-01-20T15:30:00;3.50;98.20
306;DHT22;137;48.578;9.180;2023-01-20T15:32:28;3.50;98.20
306;DHT22;137;48.578;9.180;2023-01-20T15:34:55;3.50;98.20
306;DHT22;137;48.578;9.180;2023-01-20T15:37:22;3.40;98.20
306;DHT22;137;48.578;9.180;2023-01-20T15:39:49;3.30;98.20
306;DHT22;137;48.578;9.180;2023-01-20T15:42:18;3.10;98.20
306;DHT22;137;48.578;9.180;2023-01-20T15:44:44;3.00;98.20
306;DHT22;137;48.578;9.180;2023-01-20T15:47:18;3.00;98.20
306;DHT22;137;48.578;9.180;2023-01-20T15:49:47;2.90;98.20
306;DHT22;137;48.578;9.180;2023-01-20T15:52:14;2.90;98.20
306;DHT22;137;48.578;9.180;2023-01-20T15:54:40;3.00;98.20
306;DHT22;137;48.578;9.180;2023-01-20T15:57:11;2.80;98.20
306;DHT22;137;48.578;9.180;2023-01-20T15:59:38;2.70;98.20
306;DHT22;137;48.578;9.180;2023-01-20T16:02:15;2.60;98.20
306;DHT22;137;48.578;9.180;2023-01-20T16:04:42;2.50;98.20
306;DHT22;137;48.578;9.180;2023-01-20T16:07:12;2.40;98.20
306;DHT22;137;48.578;9.180;2023-01-20T16:09:39;2.40;98.20
306;DHT22;137;48.578;9.180;2023-01-20T16:12:09;2.30;98.20
306;DHT22;137;48.578;9.180;2023-01-20T16:14:36;2.20;98.20
306;DHT22;137;48.578;9.180;2023-01-20T16:17:04;2.20;98.20
306;DHT22;137;48.578;9.180;2023-01-20T16:19:35;2.20;98.20
306;DHT22;137;48.578;9.180;2023-01-20T16:22:02;2.10;98.20
306;DHT22;137;48.578;9.180;2023-01-20T16:24:32;2.00;98.20
306;DHT22;137;48.578;9.180;2023-01-20T16:26:59;1.90;98.20
306;DHT22;137;48.578;9.180;2023-01-20T16:29:28;1.80;98.20
306;DHT22;137;48.578;9.180;2023-01-20T16:31:54;1.70;98.20
306;DHT22;137;48.578;9.180;2023-01-20T16:34:21;1.60;98.20
306;DHT22;137;48.578;9.180;2023-01-20T16:36:48;1.40;98.20
306;DHT22;137;48.578;9.180;2023-01-20T16:39:14;1.30;98.20
306;DHT22;137;48.578;9.180;2023-01-20T16:41:46;1.10;98.20
306;DHT22;137;48.578;9.180;2023-01-20T16:44:13;1.00;98.20
306;DHT22;137;48.578;9.180;2023-01-20T16:46:40;0.80;98.20
306;DHT22;137;48.578;9.180;2023-01-20T16:49:06;0.70;98.20
306;DHT22;137;48.578;9.180;2023-01-20T16:51:33;0.60;98.20
306;DHT22;137;48.578;9.180;2023-01-20T16:54:00;0.60;98.20
306;DHT22;137;48.578;9.180;2023-01-20T16:56:28;0.40;98.20
306;DHT22;137;48.578;9.180;2023-01-20T16:58:59;0.30;98.20
306;DHT22;137;48.578;9.180;2023-01-20T17:01:27;0.20;98.20
306;DHT22;137;48.578;9.180;2023-01-20T17:03:56;0.00;98.20
306;DHT22;137;48.578;9.180;2023-01-20T17:06:26;-0.10;98.20
306;DHT22;137;48.578;9.180;2023-01-20T17:08:55;-0.20;98.20
306;DHT22;137;48.578;9.180;2023-01-20T17:11:23;-0.30;98.20
306;DHT22;137;48.578;9.180;2023-01-20T17:13:50;-0.40;98.20
306;DHT22;137;48.578;9.180;2023-01-20T17:16:19;-0.40;98.20
306;DHT22;137;48.578;9.180;2023-01-20T17:18:47;-0.50;98.20
306;DHT22;137;48.578;9.180;2023-01-20T17:21:14;-0.50;98.20
306;DHT22;137;48.578;9.180;2023-01-20T17:23:41;-0.50;98.20